Surigao, Philippines
Current Conditions -  °F | °C
As of 2:00 PM on Sunday 26 Oct 2014 (Local Time) from RPVM Reporting Station
Broken Clouds Broken Clouds  
Wind Chill: 88°   Ceiling: 30000
Heat Index: 100°   Visibility: 6mi
Dew Point: 77°   Wind: 10mph
Humidity: 70%   Direction: 30°NNE
Pressure: 29.8"   Gusts: NA
Location:  9.8°N, 125.47°E
Report Text: RPVM 260600Z 03009KT 9999 FEW018CB BKN300 31/25 Q1009 RMK A2980 CB S AND W
Loading
Personal Weather Stations






























Interactive Weather Map
Tropical Storm Tracking
New forecast layout! Learn more

10-Day Weather Forecast

Advertisements
Track Severe Weather on mobile